createdAt,value
2022-07-29T00:03:28.984Z,19.60
2022-07-29T00:05:38.069Z,19.60
2022-07-29T00:07:47.190Z,19.70
2022-07-29T00:09:54.179Z,19.60
2022-07-29T00:12:06.182Z,19.50
2022-07-29T00:14:15.311Z,19.40
2022-07-29T00:16:21.786Z,19.30
2022-07-29T00:18:31.593Z,19.30
2022-07-29T00:20:41.033Z,19.50
2022-07-29T00:22:49.294Z,19.50
2022-07-29T00:24:54.905Z,19.50
2022-07-29T00:27:00.774Z,19.50
2022-07-29T00:31:33.324Z,19.50
2022-07-29T00:33:38.399Z,19.50
2022-07-29T00:35:47.786Z,19.50
2022-07-29T00:37:53.080Z,19.40
2022-07-29T00:39:58.109Z,19.30
2022-07-29T00:42:05.480Z,19.20
2022-07-29T00:44:11.071Z,19.20
2022-07-29T00:46:16.612Z,19.20
2022-07-29T00:48:22.164Z,19.20
2022-07-29T00:50:30.958Z,19.30
2022-07-29T00:52:42.761Z,19.30
2022-07-29T00:54:48.397Z,19.30
2022-07-29T00:56:54.114Z,19.30
2022-07-29T00:59:00.630Z,19.20
2022-07-29T01:01:05.994Z,19.20
2022-07-29T01:03:11.106Z,19.20
2022-07-29T01:05:16.597Z,19.10
2022-07-29T01:07:22.500Z,19.00
2022-07-29T01:09:40.856Z,19.00
2022-07-29T01:11:52.270Z,19.00
2022-07-29T01:13:57.977Z,18.90
2022-07-29T01:16:09.147Z,18.90
2022-07-29T01:18:22.218Z,19.00
2022-07-29T01:20:35.528Z,19.00
2022-07-29T01:23:32.135Z,18.90
2022-07-29T01:25:55.899Z,18.70
2022-07-29T01:28:39.852Z,18.70
2022-07-29T01:30:53.769Z,18.70
2022-07-29T01:33:06.677Z,18.70
2022-07-29T01:35:21.059Z,18.70
2022-07-29T01:37:32.212Z,18.80
2022-07-29T01:39:40.989Z,18.70
2022-07-29T01:41:54.585Z,18.70
2022-07-29T01:44:06.297Z,18.70
2022-07-29T01:46:23.790Z,18.50
2022-07-29T01:48:41.302Z,18.50
2022-07-29T01:50:56.639Z,18.40
2022-07-29T01:53:07.332Z,18.30
2022-07-29T01:55:18.584Z,18.40
2022-07-29T01:57:28.989Z,18.40
2022-07-29T01:59:38.198Z,18.40
2022-07-29T02:01:49.743Z,18.40
2022-07-29T02:04:03.537Z,18.40
2022-07-29T02:06:13.201Z,18.40
2022-07-29T02:08:23.283Z,18.40
2022-07-29T02:10:35.066Z,18.50
2022-07-29T02:12:41.611Z,18.50
2022-07-29T02:14:59.211Z,18.50
2022-07-29T02:17:08.822Z,18.50
2022-07-29T02:19:16.811Z,18.50
2022-07-29T02:21:28.533Z,18.40
2022-07-29T02:23:51.087Z,18.50
2022-07-29T02:25:59.876Z,18.40
2022-07-29T02:28:06.578Z,18.50
2022-07-29T02:30:14.770Z,18.50
2022-07-29T02:32:25.938Z,18.50
2022-07-29T02:34:33.083Z,18.50
2022-07-29T02:36:38.678Z,18.30
2022-07-29T02:38:58.465Z,18.30
2022-07-29T02:41:07.087Z,18.20
2022-07-29T02:43:13.912Z,18.30
2022-07-29T02:45:19.443Z,18.40
2022-07-29T02:47:41.387Z,18.30
2022-07-29T02:49:57.174Z,18.30
2022-07-29T02:52:08.269Z,18.30
2022-07-29T02:54:22.117Z,18.10
2022-07-29T02:56:35.852Z,18.00
2022-07-29T02:58:46.456Z,18.10
2022-07-29T03:00:52.795Z,18.10
2022-07-29T03:03:04.701Z,17.90
2022-07-29T03:05:14.800Z,17.90
2022-07-29T03:07:25.736Z,18.00
2022-07-29T03:09:33.133Z,18.00
2022-07-29T03:11:45.854Z,18.00
2022-07-29T03:13:56.697Z,18.00
2022-07-29T03:16:03.122Z,18.00
2022-07-29T03:18:14.862Z,18.00
2022-07-29T03:20:20.830Z,18.00
2022-07-29T03:22:26.401Z,17.90
2022-07-29T03:24:34.003Z,17.90
2022-07-29T03:26:39.907Z,17.80
2022-07-29T03:28:45.397Z,17.80
2022-07-29T03:30:54.090Z,17.80
2022-07-29T03:33:00.211Z,17.80
2022-07-29T03:35:10.490Z,17.80
2022-07-29T03:37:16.681Z,17.90
2022-07-29T03:39:27.421Z,17.80
2022-07-29T03:41:34.385Z,17.90
2022-07-29T03:43:49.039Z,17.90
2022-07-29T03:45:58.753Z,17.90
2022-07-29T03:48:09.430Z,17.90
2022-07-29T03:50:20.490Z,17.90
2022-07-29T03:52:27.077Z,17.90
2022-07-29T03:54:33.710Z,17.90
2022-07-29T03:56:45.592Z,17.80
2022-07-29T03:58:51.597Z,17.70
2022-07-29T04:00:57.758Z,17.80
2022-07-29T04:03:03.389Z,17.80
2022-07-29T04:05:17.823Z,17.70
2022-07-29T04:07:23.384Z,17.60
2022-07-29T04:09:28.773Z,17.10
2022-07-29T04:11:34.190Z,17.30
2022-07-29T04:13:59.555Z,17.30
2022-07-29T04:16:05.162Z,17.10
2022-07-29T04:18:10.230Z,17.10
2022-07-29T04:20:18.412Z,17.10
2022-07-29T04:22:24.148Z,17.10
2022-07-29T04:24:31.309Z,17.10
2022-07-29T04:26:36.764Z,17.10
2022-07-29T04:28:43.305Z,17.30
2022-07-29T04:30:49.483Z,17.40
2022-07-29T04:32:56.746Z,17.40
2022-07-29T04:35:01.731Z,17.50
2022-07-29T04:37:09.424Z,17.50
2022-07-29T04:39:17.034Z,17.40
2022-07-29T04:41:33.445Z,17.50
2022-07-29T04:43:39.431Z,17.50
2022-07-29T04:45:45.615Z,17.50
2022-07-29T04:47:52.768Z,17.40
2022-07-29T04:49:57.980Z,17.30
2022-07-29T04:52:03.414Z,17.20
2022-07-29T04:54:11.084Z,17.20
2022-07-29T04:56:16.083Z,17.30
2022-07-29T04:58:21.333Z,17.20
2022-07-29T05:00:29.204Z,17.00
2022-07-29T05:02:39.678Z,16.80
2022-07-29T05:04:44.836Z,16.70
2022-07-29T05:06:49.878Z,16.80
2022-07-29T05:08:55.308Z,16.70
2022-07-29T05:11:12.080Z,16.70
2022-07-29T05:13:17.630Z,16.90
2022-07-29T05:15:22.929Z,17.20
2022-07-29T05:17:27.954Z,17.30
2022-07-29T05:19:33.280Z,17.40
2022-07-29T05:21:38.488Z,17.40
2022-07-29T05:23:44.437Z,17.40
2022-07-29T05:25:52.222Z,17.50
2022-07-29T05:28:01.432Z,17.60
2022-07-29T05:30:08.095Z,17.70
2022-07-29T05:32:14.834Z,17.70
2022-07-29T05:34:22.431Z,17.80
2022-07-29T05:36:28.018Z,17.90
2022-07-29T05:38:35.323Z,17.80
2022-07-29T05:40:40.906Z,17.90
2022-07-29T05:42:45.978Z,17.90
2022-07-29T05:44:53.563Z,17.80
2022-07-29T05:46:58.588Z,17.90
2022-07-29T05:49:04.496Z,17.90
2022-07-29T05:51:10.014Z,17.80
2022-07-29T05:53:18.943Z,17.80
2022-07-29T05:55:25.480Z,17.90
2022-07-29T05:57:30.911Z,17.90
2022-07-29T05:59:39.877Z,17.90
2022-07-29T06:01:47.982Z,17.90
2022-07-29T06:03:54.520Z,17.90
2022-07-29T06:05:59.698Z,18.00
2022-07-29T06:08:06.846Z,18.00
2022-07-29T06:10:12.842Z,17.90
2022-07-29T06:12:18.206Z,17.60
2022-07-29T06:14:23.441Z,17.40
2022-07-29T06:16:30.273Z,16.90
2022-07-29T06:18:38.091Z,16.70
2022-07-29T06:20:43.648Z,16.40
2022-07-29T06:22:48.753Z,15.90
2022-07-29T06:24:53.897Z,15.70
2022-07-29T06:26:59.505Z,15.40
2022-07-29T06:29:04.896Z,15.50
2022-07-29T06:31:10.982Z,15.60
2022-07-29T06:33:20.929Z,15.70
2022-07-29T06:35:41.822Z,15.80
2022-07-29T06:37:47.246Z,16.00
2022-07-29T06:40:14.888Z,16.00
2022-07-29T06:42:21.377Z,16.00
2022-07-29T06:44:26.363Z,16.10
2022-07-29T06:46:32.292Z,16.10
2022-07-29T06:48:38.191Z,16.00
2022-07-29T06:50:46.125Z,16.00
2022-07-29T06:52:51.202Z,16.00
2022-07-29T06:54:56.324Z,15.90
2022-07-29T06:57:01.693Z,15.90
2022-07-29T06:59:07.354Z,15.90
2022-07-29T07:01:12.462Z,15.90
2022-07-29T07:03:20.488Z,15.80
2022-07-29T07:05:26.310Z,15.40
2022-07-29T07:07:33.937Z,15.50
2022-07-29T07:09:40.346Z,15.50
2022-07-29T07:11:46.082Z,15.80
2022-07-29T07:13:58.142Z,16.00
2022-07-29T07:16:07.022Z,16.20
2022-07-29T07:18:12.317Z,16.30
2022-07-29T07:20:17.348Z,16.50
2022-07-29T07:22:22.660Z,16.50
2022-07-29T07:24:31.066Z,16.50
2022-07-29T07:26:36.323Z,16.40
2022-07-29T07:28:41.336Z,16.50
2022-07-29T07:30:46.772Z,16.60
2022-07-29T07:32:52.282Z,16.40
2022-07-29T07:34:57.284Z,16.10
2022-07-29T07:37:02.767Z,16.00
2022-07-29T07:39:08.071Z,16.00
2022-07-29T07:41:15.782Z,16.30
2022-07-29T07:43:21.498Z,16.70
2022-07-29T07:45:26.790Z,16.90
2022-07-29T07:47:31.914Z,17.00
2022-07-29T07:49:39.303Z,17.10
2022-07-29T07:51:50.792Z,16.90
2022-07-29T07:53:57.401Z,16.60
2022-07-29T07:56:12.704Z,16.50
2022-07-29T07:58:21.009Z,16.30
2022-07-29T08:00:26.593Z,16.50
2022-07-29T08:02:32.481Z,16.70
2022-07-29T08:04:37.945Z,16.80
2022-07-29T08:06:43.450Z,16.90
2022-07-29T08:08:48.453Z,17.10
2022-07-29T08:10:57.120Z,17.10
2022-07-29T08:13:02.285Z,17.10
2022-07-29T08:15:12.422Z,17.10
2022-07-29T08:17:17.709Z,17.30
2022-07-29T08:19:22.845Z,17.30
2022-07-29T08:21:30.112Z,17.30
2022-07-29T08:23:46.092Z,17.40
2022-07-29T08:25:54.770Z,17.20
2022-07-29T08:28:00.109Z,16.80
2022-07-29T08:30:05.456Z,16.70
2022-07-29T08:32:13.305Z,16.40
2022-07-29T08:34:18.420Z,16.40
2022-07-29T08:36:24.581Z,16.60
2022-07-29T08:38:29.822Z,16.80
2022-07-29T08:40:35.111Z,16.90
2022-07-29T08:42:40.113Z,16.90
2022-07-29T08:44:45.533Z,17.00
2022-07-29T08:46:50.632Z,17.10
2022-07-29T08:48:59.558Z,17.20
2022-07-29T08:51:05.609Z,17.20
2022-07-29T08:53:15.633Z,17.10
2022-07-29T08:55:22.015Z,17.20
2022-07-29T08:57:28.034Z,17.30
2022-07-29T08:59:37.943Z,17.30
2022-07-29T09:01:45.256Z,17.40
2022-07-29T09:03:51.499Z,17.60
2022-07-29T09:05:59.372Z,17.60
2022-07-29T09:08:06.594Z,17.60
2022-07-29T09:10:13.483Z,17.60
2022-07-29T09:12:29.371Z,17.70
2022-07-29T09:14:35.379Z,17.80
2022-07-29T09:16:55.335Z,17.80
2022-07-29T09:19:00.541Z,17.80
2022-07-29T09:21:23.098Z,17.90
2022-07-29T09:23:28.112Z,18.00
2022-07-29T09:25:38.181Z,18.10
2022-07-29T09:27:43.540Z,18.30
2022-07-29T09:29:48.584Z,18.30
2022-07-29T09:31:56.205Z,18.20
2022-07-29T09:34:01.844Z,18.20
2022-07-29T09:36:13.676Z,18.30
2022-07-29T09:38:18.785Z,18.60
2022-07-29T09:40:27.405Z,18.80
2022-07-29T09:42:33.522Z,19.10
2022-07-29T09:44:49.214Z,19.20
2022-07-29T09:46:59.915Z,19.30
2022-07-29T09:49:11.445Z,19.20
2022-07-29T09:51:38.437Z,18.80
2022-07-29T09:53:44.133Z,18.70
2022-07-29T09:55:53.285Z,18.70
2022-07-29T09:58:18.261Z,18.90
2022-07-29T10:00:26.296Z,19.00
2022-07-29T10:02:34.594Z,19.00
2022-07-29T10:04:44.767Z,19.20
2022-07-29T10:07:06.521Z,19.20
2022-07-29T10:09:12.441Z,19.20
2022-07-29T10:11:20.074Z,19.30
2022-07-29T10:13:25.208Z,19.30
2022-07-29T10:15:33.368Z,19.30
2022-07-29T10:17:41.756Z,19.30
2022-07-29T10:19:46.962Z,19.40
2022-07-29T10:21:56.259Z,19.30
2022-07-29T10:24:07.731Z,19.40
2022-07-29T10:26:21.397Z,19.50
2022-07-29T10:28:27.833Z,19.70
2022-07-29T10:30:32.870Z,19.80
2022-07-29T10:33:12.830Z,19.80
2022-07-29T10:35:39.027Z,19.80
2022-07-29T10:38:06.218Z,20.00
2022-07-29T10:40:34.518Z,20.00
2022-07-29T10:42:45.130Z,20.10
2022-07-29T10:44:53.282Z,20.30
2022-07-29T10:46:59.570Z,20.30
2022-07-29T10:49:15.478Z,20.40
2022-07-29T10:51:20.855Z,20.50
2022-07-29T10:53:27.046Z,20.60
2022-07-29T10:55:47.774Z,20.50
2022-07-29T10:58:17.948Z,20.50
2022-07-29T11:00:34.222Z,20.60
2022-07-29T11:02:54.415Z,20.80
2022-07-29T11:05:04.848Z,20.90
2022-07-29T11:07:13.798Z,21.20
2022-07-29T11:09:25.836Z,21.30
2022-07-29T11:11:51.318Z,21.40
2022-07-29T11:13:57.619Z,21.50
2022-07-29T11:16:03.328Z,21.50
2022-07-29T11:18:14.976Z,21.70
2022-07-29T11:20:36.555Z,21.80
2022-07-29T11:22:42.993Z,21.90
2022-07-29T11:25:50.237Z,22.20
2022-07-29T11:27:48.106Z,22.40
2022-07-29T11:29:58.636Z,22.40
2022-07-29T11:32:15.762Z,22.40
2022-07-29T11:34:29.758Z,22.30
2022-07-29T11:36:35.451Z,22.40
2022-07-29T11:38:41.691Z,22.60
2022-07-29T11:41:31.786Z,22.80
2022-07-29T11:43:52.397Z,22.90
2022-07-29T11:45:57.933Z,23.20
2022-07-29T11:48:28.333Z,23.30
2022-07-29T11:50:48.549Z,23.30
2022-07-29T11:52:54.115Z,23.20
2022-07-29T11:55:09.934Z,23.20
2022-07-29T12:00:14.642Z,23.80
2022-07-29T12:02:37.472Z,24.00
2022-07-29T12:04:53.553Z,23.90
2022-07-29T12:07:01.022Z,24.30
2022-07-29T12:09:14.667Z,24.50
2022-07-29T12:11:22.644Z,24.60
2022-07-29T12:13:37.477Z,25.00
2022-07-29T12:15:47.499Z,25.40
2022-07-29T12:17:53.431Z,25.70
2022-07-29T12:20:00.531Z,25.60
2022-07-29T12:22:07.522Z,25.80
2022-07-29T12:24:12.821Z,25.90
2022-07-29T12:26:25.365Z,25.90
2022-07-29T12:28:32.130Z,26.10
2022-07-29T12:30:49.798Z,26.30
2022-07-29T12:32:57.014Z,26.60
2022-07-29T12:35:03.151Z,27.00
2022-07-29T12:37:10.629Z,27.70
2022-07-29T12:39:15.963Z,28.20
2022-07-29T12:41:21.942Z,28.30
2022-07-29T12:43:29.101Z,28.30
2022-07-29T12:45:35.057Z,28.40
2022-07-29T12:47:57.671Z,28.80
2022-07-29T12:50:15.586Z,29.50
2022-07-29T12:52:33.023Z,29.90
2022-07-29T12:54:38.520Z,29.90
2022-07-29T12:56:45.344Z,30.00
2022-07-29T12:58:51.433Z,30.30
2022-07-29T13:01:17.321Z,30.60
2022-07-29T13:03:25.885Z,30.80
2022-07-29T13:05:48.704Z,31.00
2022-07-29T13:07:57.520Z,31.50
2022-07-29T13:10:17.088Z,31.60
2022-07-29T13:12:23.845Z,31.40
2022-07-29T13:14:38.062Z,31.30
2022-07-29T13:17:09.893Z,31.30
2022-07-29T13:19:17.625Z,30.80
2022-07-29T13:21:22.755Z,30.40
2022-07-29T13:23:28.327Z,30.50
2022-07-29T13:25:35.448Z,30.60
2022-07-29T13:27:42.810Z,30.70
2022-07-29T13:29:48.246Z,31.10
2022-07-29T13:31:53.654Z,31.20
2022-07-29T13:34:00.524Z,31.10
2022-07-29T13:36:08.588Z,31.10
2022-07-29T13:38:14.280Z,30.70
2022-07-29T13:40:19.561Z,29.90
2022-07-29T13:42:24.692Z,30.40
2022-07-29T13:44:30.253Z,31.30
2022-07-29T13:46:36.051Z,31.20
2022-07-29T13:48:45.034Z,31.40
2022-07-29T13:50:50.327Z,31.70
2022-07-29T13:52:58.048Z,31.30
2022-07-29T13:55:03.152Z,30.60
2022-07-29T13:57:08.579Z,30.40
2022-07-29T13:59:14.002Z,30.70
2022-07-29T14:01:19.270Z,31.80
2022-07-29T14:03:25.461Z,32.60
2022-07-29T14:05:31.137Z,32.00
2022-07-29T14:07:36.346Z,32.10
2022-07-29T14:09:43.998Z,32.60
2022-07-29T14:11:51.172Z,32.20
2022-07-29T14:13:57.192Z,31.20
2022-07-29T14:16:02.277Z,30.20
2022-07-29T14:18:07.578Z,29.80
2022-07-29T14:20:13.763Z,29.90
2022-07-29T14:22:19.976Z,29.80
2022-07-29T14:24:28.321Z,29.90
2022-07-29T14:26:37.117Z,29.90
2022-07-29T14:28:42.680Z,29.80
2022-07-29T14:30:47.928Z,29.70
2022-07-29T14:32:53.273Z,29.70
2022-07-29T14:34:58.693Z,29.70
2022-07-29T14:37:06.143Z,29.80
2022-07-29T14:39:12.260Z,29.90
2022-07-29T14:41:17.321Z,29.80
2022-07-29T14:43:24.992Z,29.70
2022-07-29T14:45:30.590Z,29.60
2022-07-29T14:47:35.634Z,29.70
2022-07-29T14:49:41.646Z,29.70
2022-07-29T14:51:46.691Z,29.50
2022-07-29T14:53:52.435Z,29.90
2022-07-29T14:56:06.208Z,30.80
2022-07-29T14:58:22.198Z,30.80
2022-07-29T15:00:33.219Z,30.40
2022-07-29T15:03:00.419Z,30.30
2022-07-29T15:05:04.053Z,30.50
2022-07-29T15:07:09.316Z,31.20
2022-07-29T15:09:14.383Z,31.70
2022-07-29T15:11:19.541Z,31.70
2022-07-29T15:13:24.535Z,31.80
2022-07-29T15:15:32.162Z,31.70
2022-07-29T15:17:37.192Z,31.50
2022-07-29T15:19:44.849Z,31.40
2022-07-29T15:21:50.338Z,31.40
2022-07-29T15:23:55.613Z,31.30
2022-07-29T15:26:00.641Z,31.10
2022-07-29T15:28:07.994Z,31.10
2022-07-29T15:30:33.235Z,31.00
2022-07-29T15:32:41.562Z,30.70
2022-07-29T15:34:46.587Z,30.40
2022-07-29T15:36:53.093Z,30.30
2022-07-29T15:38:58.945Z,30.10
2022-07-29T15:41:04.125Z,29.80
2022-07-29T15:43:09.206Z,29.90
2022-07-29T15:45:14.486Z,29.80
2022-07-29T15:47:19.566Z,29.60
2022-07-29T15:49:46.628Z,29.40
2022-07-29T15:51:58.177Z,29.30
2022-07-29T15:54:05.844Z,29.00
2022-07-29T15:56:10.848Z,28.80
2022-07-29T15:58:15.885Z,28.80
2022-07-29T16:00:22.666Z,28.70
2022-07-29T16:02:28.714Z,28.60
2022-07-29T16:04:36.645Z,28.50
2022-07-29T16:06:41.696Z,28.30
2022-07-29T16:08:46.768Z,28.00
2022-07-29T16:10:51.962Z,27.90
2022-07-29T16:12:57.003Z,27.80
2022-07-29T16:15:07.595Z,27.80
2022-07-29T16:17:15.301Z,27.70
2022-07-29T16:19:20.371Z,28.10
2022-07-29T16:21:28.107Z,28.50
2022-07-29T16:23:33.331Z,28.10
2022-07-29T16:25:58.520Z,25.10
2022-07-29T16:28:03.651Z,17.90
2022-07-29T16:30:11.625Z,17.70
2022-07-29T16:32:22.124Z,23.40
2022-07-29T16:34:27.578Z,24.20
2022-07-29T16:36:35.250Z,22.80
2022-07-29T16:38:47.191Z,27.40
2022-07-29T16:40:52.591Z,22.40
2022-07-29T16:42:57.698Z,24.30
2022-07-29T16:45:02.883Z,20.30
2022-07-29T16:47:08.645Z,21.50
2022-07-29T16:49:19.197Z,19.20
2022-07-29T16:51:24.725Z,20.50
2022-07-29T16:53:32.532Z,19.80
2022-07-29T16:55:37.733Z,19.50
2022-07-29T16:57:43.784Z,19.80
2022-07-29T16:59:51.107Z,19.90
2022-07-29T17:01:56.353Z,19.90
2022-07-29T17:04:11.225Z,20.00
2022-07-29T17:06:16.267Z,20.10
2022-07-29T17:08:21.623Z,21.10
2022-07-29T17:10:30.352Z,13.60
2022-07-29T17:12:39.236Z,25.70
2022-07-29T17:14:44.265Z,18.70
2022-07-29T17:16:53.582Z,18.80
2022-07-29T17:19:06.616Z,18.90
2022-07-29T17:21:11.638Z,18.90
2022-07-29T17:23:17.428Z,18.80
2022-07-29T17:25:23.043Z,18.80
2022-07-29T17:27:30.789Z,18.90
2022-07-29T17:29:35.724Z,19.20
2022-07-29T17:31:41.212Z,19.30
2022-07-29T17:33:46.414Z,19.40
2022-07-29T17:36:03.735Z,19.30
2022-07-29T17:38:08.748Z,19.30
2022-07-29T17:40:15.006Z,19.30
2022-07-29T17:42:20.222Z,19.40
2022-07-29T17:44:30.697Z,19.30
2022-07-29T17:46:36.539Z,19.40
2022-07-29T17:48:41.653Z,19.50
2022-07-29T17:50:46.735Z,19.20
2022-07-29T17:52:52.179Z,19.20
2022-07-29T17:54:57.337Z,19.30
2022-07-29T17:57:02.572Z,19.00
2022-07-29T17:59:10.271Z,18.90
2022-07-29T18:01:18.115Z,18.80
2022-07-29T18:03:23.757Z,18.90
2022-07-29T18:05:28.857Z,19.10
2022-07-29T18:07:33.993Z,19.10
2022-07-29T18:09:39.202Z,19.10
2022-07-29T18:11:45.568Z,19.10
2022-07-29T18:13:51.169Z,19.30
2022-07-29T18:16:00.176Z,19.10
2022-07-29T18:18:08.781Z,19.20
2022-07-29T18:20:15.049Z,19.30
2022-07-29T18:22:20.213Z,19.30
2022-07-29T18:24:27.640Z,19.30
2022-07-29T18:26:33.343Z,19.20
2022-07-29T18:28:38.782Z,19.20
2022-07-29T18:30:46.276Z,19.20
2022-07-29T18:33:19.188Z,19.20
2022-07-29T18:35:21.124Z,19.10
2022-07-29T18:38:00.782Z,19.10
2022-07-29T18:39:53.735Z,18.80
2022-07-29T18:42:01.591Z,18.80
2022-07-29T18:44:08.190Z,18.90
2022-07-29T18:46:14.731Z,19.00
2022-07-29T18:48:20.387Z,19.10
2022-07-29T18:50:29.884Z,19.00
2022-07-29T18:52:35.348Z,18.90
2022-07-29T18:54:43.374Z,19.00
2022-07-29T18:56:49.515Z,19.10
2022-07-29T18:58:57.643Z,19.10
2022-07-29T19:01:03.393Z,19.10
2022-07-29T19:03:09.045Z,19.10
2022-07-29T19:05:17.831Z,19.10
2022-07-29T19:07:27.400Z,19.20
2022-07-29T19:09:32.972Z,19.20
2022-07-29T19:11:40.441Z,19.20
2022-07-29T19:13:46.145Z,19.20
2022-07-29T19:15:54.968Z,19.30
2022-07-29T19:18:04.109Z,19.30
2022-07-29T19:20:11.871Z,19.30
2022-07-29T19:22:17.224Z,19.20
2022-07-29T19:24:26.990Z,19.20
2022-07-29T19:26:38.975Z,19.20
2022-07-29T19:28:44.448Z,19.30
2022-07-29T19:30:55.233Z,19.30
2022-07-29T19:33:01.406Z,19.30
2022-07-29T19:35:21.521Z,19.40
2022-07-29T19:37:27.720Z,19.30
2022-07-29T19:39:37.048Z,19.30
2022-07-29T19:41:44.111Z,19.40
2022-07-29T19:43:53.408Z,19.40
2022-07-29T19:46:00.555Z,19.40
2022-07-29T19:48:08.626Z,19.40
2022-07-29T19:50:14.576Z,19.50
2022-07-29T19:52:21.021Z,19.50
2022-07-29T19:54:26.987Z,19.50
2022-07-29T19:56:35.880Z,19.50
2022-07-29T19:58:46.927Z,19.50
2022-07-29T20:00:52.943Z,19.40
2022-07-29T20:03:03.325Z,19.40
2022-07-29T20:05:12.082Z,19.40
2022-07-29T20:07:23.742Z,19.30
2022-07-29T20:09:29.670Z,19.30
2022-07-29T20:11:43.708Z,19.20
2022-07-29T20:13:49.344Z,19.20
2022-07-29T20:15:55.024Z,19.10
2022-07-29T20:18:05.221Z,19.30
2022-07-29T20:20:15.880Z,19.20
2022-07-29T20:22:26.164Z,19.20
2022-07-29T20:24:32.400Z,19.10
2022-07-29T20:26:40.676Z,19.20
2022-07-29T20:28:49.486Z,19.20
2022-07-29T20:30:55.242Z,19.10
2022-07-29T20:33:03.002Z,19.00
2022-07-29T20:35:32.100Z,19.00
2022-07-29T20:37:52.425Z,19.00
2022-07-29T20:40:03.359Z,19.00
2022-07-29T20:42:11.670Z,19.00
2022-07-29T20:44:19.411Z,19.00
2022-07-29T20:46:24.907Z,18.90
2022-07-29T20:48:31.284Z,18.90
2022-07-29T20:50:37.575Z,18.90
2022-07-29T20:52:44.407Z,18.80
2022-07-29T20:54:51.064Z,18.70
2022-07-29T20:56:58.032Z,18.70
2022-07-29T20:59:06.867Z,18.70
2022-07-29T21:01:13.368Z,18.70
2022-07-29T21:03:19.615Z,18.60
2022-07-29T21:05:25.535Z,18.60
2022-07-29T21:07:31.705Z,18.30
2022-07-29T21:09:38.559Z,18.20
2022-07-29T21:11:45.277Z,18.20
2022-07-29T21:13:52.820Z,18.40
2022-07-29T21:16:04.298Z,18.50
2022-07-29T21:18:26.952Z,18.50
2022-07-29T21:20:33.938Z,18.50
2022-07-29T21:22:39.671Z,18.60
2022-07-29T21:24:46.361Z,18.60
2022-07-29T21:27:18.267Z,18.40
2022-07-29T21:29:15.461Z,18.20
2022-07-29T21:31:23.894Z,18.00
2022-07-29T21:33:34.928Z,18.10
2022-07-29T21:36:14.975Z,18.10
2022-07-29T21:38:12.088Z,18.00
2022-07-29T21:40:17.668Z,18.10
2022-07-29T21:42:23.649Z,18.10
2022-07-29T21:44:30.835Z,18.10
2022-07-29T21:46:39.809Z,18.10
2022-07-29T21:48:45.522Z,18.10
2022-07-29T21:50:53.677Z,18.10
2022-07-29T21:53:00.005Z,18.00
2022-07-29T21:55:07.129Z,18.00
2022-07-29T21:57:12.653Z,17.90
2022-07-29T21:59:18.822Z,17.80
2022-07-29T22:01:25.270Z,17.80
2022-07-29T22:03:34.997Z,17.70
2022-07-29T22:05:40.854Z,17.50
2022-07-29T22:07:55.442Z,17.50
2022-07-29T22:10:02.634Z,17.70
2022-07-29T22:12:10.947Z,17.60
2022-07-29T22:14:18.418Z,17.70
2022-07-29T22:16:24.659Z,17.70
2022-07-29T22:18:33.117Z,17.70
2022-07-29T22:20:39.295Z,17.70
2022-07-29T22:22:47.631Z,17.70
2022-07-29T22:24:56.220Z,17.70
2022-07-29T22:27:01.952Z,17.70
2022-07-29T22:29:08.328Z,17.70
2022-07-29T22:31:15.058Z,17.60
2022-07-29T22:33:21.127Z,17.70
2022-07-29T22:35:29.698Z,17.70
2022-07-29T22:37:35.518Z,17.60
2022-07-29T22:39:41.855Z,17.40
2022-07-29T22:41:52.791Z,17.10
2022-07-29T22:43:58.424Z,17.10
2022-07-29T22:46:04.628Z,17.10
2022-07-29T22:48:11.474Z,17.20
2022-07-29T22:50:16.969Z,17.20
2022-07-29T22:52:25.202Z,17.20
2022-07-29T22:54:30.667Z,17.20
2022-07-29T22:56:40.481Z,17.20
2022-07-29T22:58:46.169Z,17.30
2022-07-29T23:00:51.340Z,17.20
2022-07-29T23:02:56.830Z,17.10
2022-07-29T23:05:01.967Z,17.20
2022-07-29T23:07:07.428Z,17.30
2022-07-29T23:09:16.118Z,17.20
2022-07-29T23:11:22.301Z,17.10
2022-07-29T23:13:28.125Z,17.10
2022-07-29T23:15:36.883Z,17.10
2022-07-29T23:17:42.431Z,17.00
2022-07-29T23:19:47.975Z,16.90
2022-07-29T23:21:53.984Z,16.90
2022-07-29T23:23:59.919Z,16.80
2022-07-29T23:26:09.215Z,16.60
2022-07-29T23:28:14.951Z,16.60
2022-07-29T23:30:21.037Z,16.60
2022-07-29T23:32:26.390Z,16.70
2022-07-29T23:34:32.576Z,16.80
2022-07-29T23:36:39.327Z,16.70
2022-07-29T23:38:46.810Z,16.70
2022-07-29T23:40:53.781Z,16.80
2022-07-29T23:43:02.353Z,16.80
2022-07-29T23:45:16.923Z,16.80
2022-07-29T23:47:22.835Z,17.00
2022-07-29T23:49:28.424Z,17.00
2022-07-29T23:51:33.785Z,17.00
2022-07-29T23:53:53.237Z,17.00
2022-07-29T23:56:00.114Z,16.90
2022-07-29T23:58:08.526Z,16.90
